sensor_id;sensor_type;location;lat;lon;timestamp;pressure;altitude;pressure_sealevel;temperature;humidity
12452;BME280;72521;48.924;12.204;2023-09-18T00:00:54;97152.66;;;17.16;82.25
12452;BME280;72521;48.924;12.204;2023-09-18T00:05:59;97151.13;;;16.94;83.47
12452;BME280;72521;48.924;12.204;2023-09-18T00:11:05;97149.63;;;16.84;83.65
12452;BME280;72521;48.924;12.204;2023-09-18T00:16:10;97137.28;;;16.80;83.60
12452;BME280;72521;48.924;12.204;2023-09-18T00:21:16;97143.25;;;16.77;83.51
12452;BME280;72521;48.924;12.204;2023-09-18T00:26:21;97132.66;;;16.68;83.54
12452;BME280;72521;48.924;12.204;2023-09-18T00:31:28;97120.25;;;16.63;83.54
12452;BME280;72521;48.924;12.204;2023-09-18T00:36:32;97107.06;;;16.58;83.45
12452;BME280;72521;48.924;12.204;2023-09-18T00:41:37;97110.59;;;16.50;83.66
12452;BME280;72521;48.924;12.204;2023-09-18T00:46:42;97106.28;;;16.37;83.72
12452;BME280;72521;48.924;12.204;2023-09-18T00:51:46;97102.72;;;16.33;83.96
12452;BME280;72521;48.924;12.204;2023-09-18T00:56:52;97097.97;;;16.39;83.66
12452;BME280;72521;48.924;12.204;2023-09-18T01:01:59;97083.38;;;16.36;83.34
12452;BME280;72521;48.924;12.204;2023-09-18T01:07:03;97075.81;;;16.38;83.07
12452;BME280;72521;48.924;12.204;2023-09-18T01:12:17;97077.75;;;16.29;83.56
12452;BME280;72521;48.924;12.204;2023-09-18T01:17:22;97081.75;;;16.23;83.61
12452;BME280;72521;48.924;12.204;2023-09-18T01:22:31;97073.34;;;16.33;82.45
12452;BME280;72521;48.924;12.204;2023-09-18T01:27:35;97061.09;;;16.32;83.04
12452;BME280;72521;48.924;12.204;2023-09-18T01:32:40;97072.69;;;16.36;82.45
12452;BME280;72521;48.924;12.204;2023-09-18T01:37:46;97074.56;;;16.36;83.00
12452;BME280;72521;48.924;12.204;2023-09-18T01:42:50;97062.38;;;16.26;83.02
12452;BME280;72521;48.924;12.204;2023-09-18T01:47:54;97049.97;;;16.30;83.03
12452;BME280;72521;48.924;12.204;2023-09-18T01:53:00;97040.25;;;16.25;83.03
12452;BME280;72521;48.924;12.204;2023-09-18T01:58:04;97032.78;;;16.19;83.14
12452;BME280;72521;48.924;12.204;2023-09-18T02:03:09;97033.56;;;16.19;83.05
12452;BME280;72521;48.924;12.204;2023-09-18T02:08:35;97035.31;;;16.15;83.56
12452;BME280;72521;48.924;12.204;2023-09-18T02:13:39;97024.97;;;16.14;83.85
12452;BME280;72521;48.924;12.204;2023-09-18T02:18:43;97026.78;;;16.01;84.02
12452;BME280;72521;48.924;12.204;2023-09-18T02:23:51;97018.00;;;16.01;84.13
12452;BME280;72521;48.924;12.204;2023-09-18T02:28:59;97019.66;;;16.05;83.96
12452;BME280;72521;48.924;12.204;2023-09-18T02:34:03;97015.78;;;16.03;83.54
12452;BME280;72521;48.924;12.204;2023-09-18T02:39:08;97008.34;;;16.08;83.25
12452;BME280;72521;48.924;12.204;2023-09-18T02:44:12;97012.44;;;16.06;83.28
12452;BME280;72521;48.924;12.204;2023-09-18T02:49:16;97002.63;;;15.98;83.65
12452;BME280;72521;48.924;12.204;2023-09-18T02:54:22;97012.97;;;15.99;83.28
12452;BME280;72521;48.924;12.204;2023-09-18T02:59:26;97021.38;;;15.89;83.85
12452;BME280;72521;48.924;12.204;2023-09-18T03:04:31;97020.13;;;15.86;83.74
12452;BME280;72521;48.924;12.204;2023-09-18T03:09:38;97000.22;;;15.84;83.55
12452;BME280;72521;48.924;12.204;2023-09-18T03:14:42;97000.41;;;15.79;83.79
12452;BME280;72521;48.924;12.204;2023-09-18T03:19:48;97007.22;;;15.68;84.47
12452;BME280;72521;48.924;12.204;2023-09-18T03:24:53;96990.63;;;15.62;84.58
12452;BME280;72521;48.924;12.204;2023-09-18T03:29:58;97002.59;;;15.56;84.50
12452;BME280;72521;48.924;12.204;2023-09-18T03:35:02;96995.38;;;15.56;84.41
12452;BME280;72521;48.924;12.204;2023-09-18T03:40:10;96980.16;;;15.57;84.25
12452;BME280;72521;48.924;12.204;2023-09-18T03:45:14;96969.06;;;15.46;85.01
12452;BME280;72521;48.924;12.204;2023-09-18T03:50:18;96959.66;;;15.40;85.46
12452;BME280;72521;48.924;12.204;2023-09-18T03:55:23;96959.41;;;15.33;85.62
12452;BME280;72521;48.924;12.204;2023-09-18T04:00:28;96954.38;;;15.32;85.55
12452;BME280;72521;48.924;12.204;2023-09-18T04:05:32;96946.75;;;15.21;85.67
12452;BME280;72521;48.924;12.204;2023-09-18T04:10:37;96949.28;;;15.18;85.80
12452;BME280;72521;48.924;12.204;2023-09-18T04:15:41;96935.50;;;15.16;85.40
12452;BME280;72521;48.924;12.204;2023-09-18T04:20:46;96921.13;;;15.00;85.82
12452;BME280;72521;48.924;12.204;2023-09-18T04:25:52;96914.72;;;15.01;85.64
12452;BME280;72521;48.924;12.204;2023-09-18T04:30:57;96920.09;;;14.92;85.17
12452;BME280;72521;48.924;12.204;2023-09-18T04:36:03;96912.59;;;14.85;85.16
12452;BME280;72521;48.924;12.204;2023-09-18T04:41:08;96916.84;;;14.87;85.80
12452;BME280;72521;48.924;12.204;2023-09-18T04:46:13;96907.75;;;14.88;85.96
12452;BME280;72521;48.924;12.204;2023-09-18T04:51:18;96913.19;;;14.91;85.88
12452;BME280;72521;48.924;12.204;2023-09-18T04:56:24;96907.50;;;15.01;85.31
12452;BME280;72521;48.924;12.204;2023-09-18T05:01:29;96898.88;;;15.04;85.50
12452;BME280;72521;48.924;12.204;2023-09-18T05:06:35;96907.44;;;15.18;84.72
12452;BME280;72521;48.924;12.204;2023-09-18T05:11:42;96896.38;;;15.29;84.52
12452;BME280;72521;48.924;12.204;2023-09-18T05:16:46;96895.63;;;15.49;83.68
12452;BME280;72521;48.924;12.204;2023-09-18T05:21:51;96897.13;;;15.38;83.91
12452;BME280;72521;48.924;12.204;2023-09-18T05:26:56;96901.13;;;15.73;83.30
12452;BME280;72521;48.924;12.204;2023-09-18T05:32:00;96902.31;;;15.96;82.55
12452;BME280;72521;48.924;12.204;2023-09-18T05:37:04;96888.81;;;16.02;82.06
12452;BME280;72521;48.924;12.204;2023-09-18T05:42:09;96896.19;;;16.17;82.07
12452;BME280;72521;48.924;12.204;2023-09-18T05:47:16;96880.25;;;16.53;80.77
12452;BME280;72521;48.924;12.204;2023-09-18T05:52:20;96860.94;;;16.68;80.13
12452;BME280;72521;48.924;12.204;2023-09-18T05:57:27;96886.22;;;16.71;80.56
12452;BME280;72521;48.924;12.204;2023-09-18T06:02:32;96907.81;;;16.78;80.49
12452;BME280;72521;48.924;12.204;2023-09-18T06:07:36;96915.50;;;17.04;80.96
12452;BME280;72521;48.924;12.204;2023-09-18T06:12:42;96899.75;;;18.19;76.65
12452;BME280;72521;48.924;12.204;2023-09-18T06:17:46;96881.91;;;18.23;74.42
12452;BME280;72521;48.924;12.204;2023-09-18T06:22:50;96873.88;;;18.39;75.09
12452;BME280;72521;48.924;12.204;2023-09-18T06:27:56;96860.25;;;18.44;74.38
12452;BME280;72521;48.924;12.204;2023-09-18T06:33:00;96878.25;;;18.75;73.24
12452;BME280;72521;48.924;12.204;2023-09-18T06:38:07;96892.06;;;19.43;71.47
12452;BME280;72521;48.924;12.204;2023-09-18T06:43:14;96878.31;;;20.18;68.57
12452;BME280;72521;48.924;12.204;2023-09-18T06:48:18;96872.53;;;19.97;68.65
12452;BME280;72521;48.924;12.204;2023-09-18T06:53:22;96890.63;;;21.33;66.12
12452;BME280;72521;48.924;12.204;2023-09-18T06:58:30;96902.28;;;20.95;66.25
12452;BME280;72521;48.924;12.204;2023-09-18T07:03:35;96906.69;;;20.19;69.38
12452;BME280;72521;48.924;12.204;2023-09-18T07:08:40;96898.13;;;20.52;67.46
12452;BME280;72521;48.924;12.204;2023-09-18T07:13:45;96903.97;;;20.35;68.63
12452;BME280;72521;48.924;12.204;2023-09-18T07:18:49;96912.22;;;20.91;66.72
12452;BME280;72521;48.924;12.204;2023-09-18T07:23:54;96909.81;;;20.02;69.15
12452;BME280;72521;48.924;12.204;2023-09-18T07:28:59;96929.25;;;20.99;69.22
12452;BME280;72521;48.924;12.204;2023-09-18T07:34:04;96922.56;;;21.12;66.75
12452;BME280;72521;48.924;12.204;2023-09-18T07:39:08;96928.00;;;20.93;67.04
12452;BME280;72521;48.924;12.204;2023-09-18T07:44:19;96947.00;;;20.38;69.38
12452;BME280;72521;48.924;12.204;2023-09-18T07:49:24;96948.81;;;20.73;68.93
12452;BME280;72521;48.924;12.204;2023-09-18T07:54:27;96944.84;;;20.90;67.06
12452;BME280;72521;48.924;12.204;2023-09-18T07:59:33;96935.81;;;22.40;64.29
12452;BME280;72521;48.924;12.204;2023-09-18T08:04:37;96924.94;;;23.65;60.15
12452;BME280;72521;48.924;12.204;2023-09-18T08:09:41;96933.94;;;23.25;58.09
12452;BME280;72521;48.924;12.204;2023-09-18T08:14:48;96960.84;;;21.51;65.81
12452;BME280;72521;48.924;12.204;2023-09-18T08:19:53;96965.88;;;22.39;62.12
12452;BME280;72521;48.924;12.204;2023-09-18T08:24:57;96953.81;;;22.29;61.60
12452;BME280;72521;48.924;12.204;2023-09-18T08:30:03;96946.25;;;22.42;60.11
12452;BME280;72521;48.924;12.204;2023-09-18T08:35:08;96930.84;;;23.27;58.29
12452;BME280;72521;48.924;12.204;2023-09-18T08:40:14;96924.47;;;22.98;60.74
12452;BME280;72521;48.924;12.204;2023-09-18T08:45:25;96917.78;;;26.25;51.67
12452;BME280;72521;48.924;12.204;2023-09-18T08:50:32;96918.06;;;27.52;47.41
12452;BME280;72521;48.924;12.204;2023-09-18T08:55:37;96923.72;;;26.75;47.43
12452;BME280;72521;48.924;12.204;2023-09-18T09:00:42;96938.63;;;26.46;47.89
12452;BME280;72521;48.924;12.204;2023-09-18T09:05:46;96923.56;;;28.77;44.07
12452;BME280;72521;48.924;12.204;2023-09-18T09:10:51;96931.88;;;22.68;57.44
12452;BME280;72521;48.924;12.204;2023-09-18T09:15:58;96937.19;;;22.57;58.70
12452;BME280;72521;48.924;12.204;2023-09-18T09:21:03;96920.63;;;24.30;54.55
12452;BME280;72521;48.924;12.204;2023-09-18T09:26:16;96928.38;;;24.35;55.83
12452;BME280;72521;48.924;12.204;2023-09-18T09:31:28;96935.19;;;26.42;51.33
12452;BME280;72521;48.924;12.204;2023-09-18T09:36:55;96926.59;;;27.50;47.34
12452;BME280;72521;48.924;12.204;2023-09-18T09:42:04;96918.84;;;28.81;43.89
12452;BME280;72521;48.924;12.204;2023-09-18T09:47:25;96903.66;;;31.33;38.75
12452;BME280;72521;48.924;12.204;2023-09-18T09:52:40;96901.06;;;29.66;41.69
12452;BME280;72521;48.924;12.204;2023-09-18T09:58:08;96890.88;;;26.59;47.29
12452;BME280;72521;48.924;12.204;2023-09-18T10:03:20;96889.50;;;26.30;51.54
12452;BME280;72521;48.924;12.204;2023-09-18T10:08:26;96883.66;;;30.00;42.06
12452;BME280;72521;48.924;12.204;2023-09-18T10:13:42;96881.56;;;30.43;40.50
12452;BME280;72521;48.924;12.204;2023-09-18T10:19:00;96880.41;;;29.45;42.47
12452;BME280;72521;48.924;12.204;2023-09-18T10:24:14;96897.00;;;27.22;47.98
12452;BME280;72521;48.924;12.204;2023-09-18T10:29:23;96892.06;;;27.54;46.88
12452;BME280;72521;48.924;12.204;2023-09-18T10:34:31;96891.75;;;27.01;47.85
12452;BME280;72521;48.924;12.204;2023-09-18T10:39:38;96910.66;;;25.55;50.99
12452;BME280;72521;48.924;12.204;2023-09-18T10:44:43;96917.69;;;25.17;51.93
12452;BME280;72521;48.924;12.204;2023-09-18T10:49:49;96911.09;;;25.18;53.10
12452;BME280;72521;48.924;12.204;2023-09-18T10:54:53;96916.88;;;25.37;51.84
12452;BME280;72521;48.924;12.204;2023-09-18T10:59:58;96909.44;;;24.28;54.17
12452;BME280;72521;48.924;12.204;2023-09-18T11:05:06;96915.19;;;24.23;54.61
12452;BME280;72521;48.924;12.204;2023-09-18T11:10:25;96914.06;;;24.34;54.23
12452;BME280;72521;48.924;12.204;2023-09-18T11:15:32;96919.38;;;24.13;55.62
12452;BME280;72521;48.924;12.204;2023-09-18T11:20:39;96927.22;;;24.36;55.42
12452;BME280;72521;48.924;12.204;2023-09-18T11:25:43;96928.03;;;24.47;56.42
12452;BME280;72521;48.924;12.204;2023-09-18T11:30:50;96937.41;;;25.13;54.66
12452;BME280;72521;48.924;12.204;2023-09-18T11:36:08;96935.44;;;24.93;57.05
12452;BME280;72521;48.924;12.204;2023-09-18T11:41:23;96940.75;;;24.39;58.34
12452;BME280;72521;48.924;12.204;2023-09-18T11:46:28;96942.22;;;24.23;59.48
12452;BME280;72521;48.924;12.204;2023-09-18T11:51:35;96924.53;;;24.43;58.42
12452;BME280;72521;48.924;12.204;2023-09-18T11:56:40;96933.44;;;24.54;58.34
12452;BME280;72521;48.924;12.204;2023-09-18T12:01:51;96931.59;;;25.01;56.83
12452;BME280;72521;48.924;12.204;2023-09-18T12:06:57;96930.03;;;25.00;55.52
12452;BME280;72521;48.924;12.204;2023-09-18T12:12:06;96938.09;;;24.64;55.97
12452;BME280;72521;48.924;12.204;2023-09-18T12:17:15;96934.22;;;24.58;55.91
12452;BME280;72521;48.924;12.204;2023-09-18T12:22:25;96929.25;;;25.60;53.31
12452;BME280;72521;48.924;12.204;2023-09-18T12:27:30;96930.78;;;25.75;53.10
12452;BME280;72521;48.924;12.204;2023-09-18T12:32:37;96930.41;;;25.55;51.08
12452;BME280;72521;48.924;12.204;2023-09-18T12:37:43;96937.00;;;25.29;46.25
12452;BME280;72521;48.924;12.204;2023-09-18T12:42:47;96949.75;;;25.32;45.47
12452;BME280;72521;48.924;12.204;2023-09-18T12:47:54;96952.09;;;25.02;45.26
12452;BME280;72521;48.924;12.204;2023-09-18T12:53:11;96951.69;;;24.89;46.09
12452;BME280;72521;48.924;12.204;2023-09-18T12:58:19;96959.72;;;24.57;47.66
12452;BME280;72521;48.924;12.204;2023-09-18T13:03:23;96973.09;;;24.18;48.23
12452;BME280;72521;48.924;12.204;2023-09-18T13:08:29;96977.63;;;23.96;48.98
12452;BME280;72521;48.924;12.204;2023-09-18T13:13:34;96989.63;;;24.02;48.71
12452;BME280;72521;48.924;12.204;2023-09-18T13:18:38;96993.28;;;23.70;46.73
12452;BME280;72521;48.924;12.204;2023-09-18T13:23:45;97005.53;;;23.53;45.90
12452;BME280;72521;48.924;12.204;2023-09-18T13:28:50;97021.56;;;23.35;46.52
12452;BME280;72521;48.924;12.204;2023-09-18T13:33:56;97010.69;;;23.28;47.78
12452;BME280;72521;48.924;12.204;2023-09-18T13:39:03;97011.81;;;23.23;49.04
12452;BME280;72521;48.924;12.204;2023-09-18T13:44:08;97025.94;;;22.73;51.79
12452;BME280;72521;48.924;12.204;2023-09-18T13:49:13;97043.25;;;22.08;52.71
12452;BME280;72521;48.924;12.204;2023-09-18T13:54:19;97033.66;;;21.84;54.38
12452;BME280;72521;48.924;12.204;2023-09-18T13:59:24;97029.38;;;21.80;55.74
12452;BME280;72521;48.924;12.204;2023-09-18T14:04:29;97048.91;;;21.28;57.62
12452;BME280;72521;48.924;12.204;2023-09-18T14:09:34;97067.78;;;20.89;59.20
12452;BME280;72521;48.924;12.204;2023-09-18T14:14:39;97061.88;;;20.61;60.24
12452;BME280;72521;48.924;12.204;2023-09-18T14:19:44;97066.19;;;20.30;62.05
12452;BME280;72521;48.924;12.204;2023-09-18T14:24:50;97081.31;;;19.84;64.65
12452;BME280;72521;48.924;12.204;2023-09-18T14:29:54;97091.28;;;19.52;66.44
12452;BME280;72521;48.924;12.204;2023-09-18T14:34:59;97101.69;;;19.26;68.37
12452;BME280;72521;48.924;12.204;2023-09-18T14:40:07;97118.63;;;18.99;72.27
12452;BME280;72521;48.924;12.204;2023-09-18T14:45:16;97131.53;;;18.16;77.62
12452;BME280;72521;48.924;12.204;2023-09-18T14:50:20;97135.75;;;17.81;79.62
12452;BME280;72521;48.924;12.204;2023-09-18T14:55:26;97138.22;;;17.74;80.73
12452;BME280;72521;48.924;12.204;2023-09-18T15:00:33;97151.47;;;17.70;81.30
12452;BME280;72521;48.924;12.204;2023-09-18T15:05:38;97133.81;;;17.45;81.65
12452;BME280;72521;48.924;12.204;2023-09-18T15:10:45;97115.69;;;17.18;83.90
12452;BME280;72521;48.924;12.204;2023-09-18T15:15:54;97113.53;;;16.99;84.26
12452;BME280;72521;48.924;12.204;2023-09-18T15:20:59;97113.13;;;16.88;86.42
12452;BME280;72521;48.924;12.204;2023-09-18T15:26:05;97098.22;;;16.87;85.93
12452;BME280;72521;48.924;12.204;2023-09-18T15:31:09;97051.63;;;17.21;84.02
12452;BME280;72521;48.924;12.204;2023-09-18T15:36:13;97037.41;;;17.29;81.70
12452;BME280;72521;48.924;12.204;2023-09-18T15:41:19;97063.53;;;17.12;84.58
12452;BME280;72521;48.924;12.204;2023-09-18T15:46:23;97050.41;;;17.19;85.07
12452;BME280;72521;48.924;12.204;2023-09-18T15:51:28;97068.50;;;16.89;85.87
12452;BME280;72521;48.924;12.204;2023-09-18T15:56:34;97065.13;;;16.80;86.83
12452;BME280;72521;48.924;12.204;2023-09-18T16:01:39;97068.31;;;16.73;86.83
12452;BME280;72521;48.924;12.204;2023-09-18T16:06:44;97061.66;;;16.79;86.55
12452;BME280;72521;48.924;12.204;2023-09-18T16:11:50;97091.31;;;16.65;86.87
12452;BME280;72521;48.924;12.204;2023-09-18T16:16:54;97098.38;;;16.70;86.55
12452;BME280;72521;48.924;12.204;2023-09-18T16:21:59;97099.94;;;16.71;86.10
12452;BME280;72521;48.924;12.204;2023-09-18T16:27:05;97097.59;;;16.69;85.23
12452;BME280;72521;48.924;12.204;2023-09-18T16:32:10;97092.03;;;16.75;85.13
12452;BME280;72521;48.924;12.204;2023-09-18T16:37:15;97089.75;;;16.64;85.93
12452;BME280;72521;48.924;12.204;2023-09-18T16:42:20;97087.22;;;16.68;86.24
12452;BME280;72521;48.924;12.204;2023-09-18T16:47:25;97096.03;;;16.68;86.64
12452;BME280;72521;48.924;12.204;2023-09-18T16:52:33;97092.00;;;16.62;86.84
12452;BME280;72521;48.924;12.204;2023-09-18T16:57:41;97101.28;;;16.56;88.01
12452;BME280;72521;48.924;12.204;2023-09-18T17:02:45;97086.03;;;16.78;87.16
12452;BME280;72521;48.924;12.204;2023-09-18T17:07:51;97071.97;;;16.68;87.65
12452;BME280;72521;48.924;12.204;2023-09-18T17:12:58;97061.34;;;16.81;87.31
12452;BME280;72521;48.924;12.204;2023-09-18T17:18:05;97062.44;;;16.80;87.23
12452;BME280;72521;48.924;12.204;2023-09-18T17:23:11;97059.88;;;16.71;87.38
12452;BME280;72521;48.924;12.204;2023-09-18T17:28:17;97047.28;;;16.72;87.22
12452;BME280;72521;48.924;12.204;2023-09-18T17:33:22;97059.78;;;16.80;87.01
12452;BME280;72521;48.924;12.204;2023-09-18T17:38:27;97057.66;;;16.85;87.16
12452;BME280;72521;48.924;12.204;2023-09-18T17:43:33;97053.75;;;16.83;86.91
12452;BME280;72521;48.924;12.204;2023-09-18T17:48:40;97039.69;;;16.74;86.96
12452;BME280;72521;48.924;12.204;2023-09-18T17:53:45;97054.72;;;16.66;88.00
12452;BME280;72521;48.924;12.204;2023-09-18T17:58:50;97049.56;;;16.61;88.20
12452;BME280;72521;48.924;12.204;2023-09-18T18:03:55;97047.03;;;16.64;87.91
12452;BME280;72521;48.924;12.204;2023-09-18T18:09:01;97052.97;;;16.70;87.96
12452;BME280;72521;48.924;12.204;2023-09-18T18:14:09;97062.63;;;16.62;87.94
12452;BME280;72521;48.924;12.204;2023-09-18T18:19:13;97057.25;;;16.42;88.61
12452;BME280;72521;48.924;12.204;2023-09-18T18:24:23;97068.66;;;16.30;89.36
12452;BME280;72521;48.924;12.204;2023-09-18T18:29:29;97070.94;;;16.40;89.17
12452;BME280;72521;48.924;12.204;2023-09-18T18:34:33;97076.34;;;16.52;88.74
12452;BME280;72521;48.924;12.204;2023-09-18T18:39:38;97068.19;;;16.49;88.83
12452;BME280;72521;48.924;12.204;2023-09-18T18:44:43;97066.63;;;16.48;88.55
12452;BME280;72521;48.924;12.204;2023-09-18T18:49:49;97056.00;;;16.39;88.72
12452;BME280;72521;48.924;12.204;2023-09-18T18:54:53;97077.84;;;16.20;89.61
12452;BME280;72521;48.924;12.204;2023-09-18T19:00:00;97069.88;;;16.12;89.94
12452;BME280;72521;48.924;12.204;2023-09-18T19:05:05;97081.19;;;16.09;90.19
12452;BME280;72521;48.924;12.204;2023-09-18T19:10:13;97075.88;;;16.09;89.26
12452;BME280;72521;48.924;12.204;2023-09-18T19:15:20;97079.47;;;16.13;88.96
12452;BME280;72521;48.924;12.204;2023-09-18T19:20:27;97082.13;;;16.13;88.49
12452;BME280;72521;48.924;12.204;2023-09-18T19:25:32;97071.00;;;16.11;88.37
12452;BME280;72521;48.924;12.204;2023-09-18T19:30:38;97052.47;;;16.06;88.45
12452;BME280;72521;48.924;12.204;2023-09-18T19:35:49;97047.94;;;15.85;89.17
12452;BME280;72521;48.924;12.204;2023-09-18T19:40:55;97053.16;;;15.73;89.49
12452;BME280;72521;48.924;12.204;2023-09-18T19:46:18;97045.47;;;15.72;88.95
12452;BME280;72521;48.924;12.204;2023-09-18T19:51:24;97050.03;;;15.71;88.83
12452;BME280;72521;48.924;12.204;2023-09-18T19:56:32;97049.88;;;15.68;89.13
12452;BME280;72521;48.924;12.204;2023-09-18T20:01:45;97052.69;;;15.71;88.38
12452;BME280;72521;48.924;12.204;2023-09-18T20:07:00;97050.09;;;15.63;88.88
12452;BME280;72521;48.924;12.204;2023-09-18T20:12:08;97050.22;;;15.66;88.55
12452;BME280;72521;48.924;12.204;2023-09-18T20:17:21;97041.09;;;15.67;88.30
12452;BME280;72521;48.924;12.204;2023-09-18T20:22:26;97037.34;;;15.68;88.20
12452;BME280;72521;48.924;12.204;2023-09-18T20:27:32;97052.91;;;15.66;88.37
12452;BME280;72521;48.924;12.204;2023-09-18T20:32:39;97041.75;;;15.64;87.78
12452;BME280;72521;48.924;12.204;2023-09-18T20:37:44;97041.47;;;15.48;88.58
12452;BME280;72521;48.924;12.204;2023-09-18T20:42:48;97056.09;;;15.42;88.64
12452;BME280;72521;48.924;12.204;2023-09-18T20:47:54;97050.81;;;15.34;89.10
12452;BME280;72521;48.924;12.204;2023-09-18T20:52:58;97041.25;;;15.33;88.61
12452;BME280;72521;48.924;12.204;2023-09-18T20:58:03;97042.53;;;15.27;89.14
12452;BME280;72521;48.924;12.204;2023-09-18T21:03:08;97058.06;;;15.25;88.93
12452;BME280;72521;48.924;12.204;2023-09-18T21:08:13;97055.66;;;15.32;88.88
12452;BME280;72521;48.924;12.204;2023-09-18T21:13:17;97056.97;;;15.26;88.69
12452;BME280;72521;48.924;12.204;2023-09-18T21:18:22;97049.00;;;15.17;89.39
12452;BME280;72521;48.924;12.204;2023-09-18T21:23:26;97041.31;;;15.15;89.40
12452;BME280;72521;48.924;12.204;2023-09-18T21:28:31;97050.41;;;15.14;89.46
12452;BME280;72521;48.924;12.204;2023-09-18T21:33:36;97055.13;;;15.17;88.79
12452;BME280;72521;48.924;12.204;2023-09-18T21:38:42;97060.56;;;15.21;88.85
12452;BME280;72521;48.924;12.204;2023-09-18T21:43:47;97071.38;;;15.25;89.15
12452;BME280;72521;48.924;12.204;2023-09-18T21:48:54;97072.00;;;15.21;88.71
12452;BME280;72521;48.924;12.204;2023-09-18T21:53:58;97070.13;;;15.22;88.58
12452;BME280;72521;48.924;12.204;2023-09-18T21:59:02;97066.22;;;15.19;88.79
12452;BME280;72521;48.924;12.204;2023-09-18T22:04:10;97064.69;;;15.18;88.72
12452;BME280;72521;48.924;12.204;2023-09-18T22:09:26;97064.81;;;15.22;88.71
12452;BME280;72521;48.924;12.204;2023-09-18T22:14:30;97064.19;;;15.16;89.25
12452;BME280;72521;48.924;12.204;2023-09-18T22:19:35;97057.00;;;15.17;89.18
12452;BME280;72521;48.924;12.204;2023-09-18T22:24:39;97042.91;;;15.08;89.54
12452;BME280;72521;48.924;12.204;2023-09-18T22:29:43;97048.41;;;15.03;89.39
12452;BME280;72521;48.924;12.204;2023-09-18T22:34:49;97043.09;;;14.94;89.68
12452;BME280;72521;48.924;12.204;2023-09-18T22:57:13;97036.25;;;14.76;89.92
12452;BME280;72521;48.924;12.204;2023-09-18T23:02:17;97026.38;;;14.76;90.14
12452;BME280;72521;48.924;12.204;2023-09-18T23:07:23;97037.66;;;14.65;90.67
12452;BME280;72521;48.924;12.204;2023-09-18T23:12:32;97047.22;;;14.66;90.92
12452;BME280;72521;48.924;12.204;2023-09-18T23:17:37;97046.91;;;14.67;90.79
12452;BME280;72521;48.924;12.204;2023-09-18T23:22:42;97059.44;;;14.67;90.17
12452;BME280;72521;48.924;12.204;2023-09-18T23:27:48;97068.50;;;14.74;90.27
12452;BME280;72521;48.924;12.204;2023-09-18T23:32:56;97064.91;;;14.79;89.90
12452;BME280;72521;48.924;12.204;2023-09-18T23:38:03;97077.59;;;14.73;90.12
12452;BME280;72521;48.924;12.204;2023-09-18T23:43:09;97074.81;;;14.70;90.39
12452;BME280;72521;48.924;12.204;2023-09-18T23:48:17;97064.78;;;14.67;91.03
12452;BME280;72521;48.924;12.204;2023-09-18T23:53:21;97063.19;;;14.66;91.05
12452;BME280;72521;48.924;12.204;2023-09-18T23:58:29;97071.03;;;14.54;91.69
